Time;durP1;ratioP1;P1;durP2;ratioP2;P2;SDS_P1;SDS_P2;PMS_P1;PMS_P2;Temp;Humidity;BMP_temperature;BMP_pressure;BME280_temperature;BME280_humidity;BME280_pressure;Samples;Min_cycle;Max_cycle;Signal;HPM_P1;HPM_P2
2022/07/24 00:01:23;;;;;;;2.30;2.10;;;17.70;99.90;;;;;;5083167;28;20485;-78
2022/07/24 00:03:49;;;;;;;2.97;2.47;;;17.60;99.90;;;;;;5087687;28;20488;-78
2022/07/24 00:06:16;;;;;;;5.37;2.83;;;17.60;99.90;;;;;;5085856;28;20456;-78
2022/07/24 00:08:43;;;;;;;2.43;2.23;;;17.60;99.90;;;;;;5078791;28;20504;-78
2022/07/24 00:11:10;;;;;;;1.90;1.80;;;17.60;99.90;;;;;;5075810;28;20535;-79
2022/07/24 00:13:36;;;;;;;4.37;1.83;;;17.50;99.90;;;;;;5076313;28;20476;-77
2022/07/24 00:16:04;;;;;;;2.50;2.30;;;17.40;99.90;;;;;;5074891;28;20448;-77
2022/07/24 00:18:32;;;;;;;1.93;1.77;;;17.40;99.90;;;;;;5073132;28;20445;-77
2022/07/24 00:20:59;;;;;;;1.70;1.60;;;17.30;99.90;;;;;;5075101;28;20445;-78
2022/07/24 00:23:26;;;;;;;2.37;1.80;;;17.30;99.90;;;;;;5078636;28;20464;-77
2022/07/24 00:25:54;;;;;;;2.13;1.93;;;17.30;99.90;;;;;;5083432;28;20966;-77
2022/07/24 00:28:20;;;;;;;3.70;1.60;;;17.40;99.90;;;;;;5082991;28;20819;-78
2022/07/24 00:30:47;;;;;;;2.77;2.10;;;17.30;99.90;;;;;;5082447;28;20440;-78
2022/07/24 00:33:14;;;;;;;4.13;2.47;;;17.30;99.90;;;;;;5081351;28;20461;-78
2022/07/24 00:35:43;;;;;;;3.60;3.30;;;17.30;99.90;;;;;;5081607;28;20452;-79
2022/07/24 00:38:11;;;;;;;4.40;3.83;;;17.20;99.90;;;;;;5077141;28;20947;-77
2022/07/24 00:40:38;;;;;;;5.23;3.63;;;17.20;99.90;;;;;;5079551;28;20449;-78
2022/07/24 00:43:05;;;;;;;4.00;2.60;;;17.20;99.90;;;;;;5087963;28;20530;-78
2022/07/24 00:45:32;;;;;;;3.30;3.00;;;17.30;99.90;;;;;;5092834;28;20441;-78
2022/07/24 00:47:59;;;;;;;4.53;3.00;;;17.30;99.90;;;;;;5094440;28;20448;-77
2022/07/24 00:50:26;;;;;;;2.80;2.60;;;17.20;99.90;;;;;;5081478;28;20819;-77
2022/07/24 00:52:56;;;;;;;3.10;2.77;;;17.10;99.90;;;;;;5079146;28;20464;-79
2022/07/24 00:55:23;;;;;;;3.40;3.00;;;17.00;99.90;;;;;;5077706;28;20444;-77
2022/07/24 00:57:50;;;;;;;5.37;3.73;;;17.50;99.90;;;;;;5076922;28;21058;-79
2022/07/24 01:00:19;;;;;;;3.00;2.80;;;16.90;99.90;;;;;;5079852;28;20935;-77
2022/07/24 01:02:46;;;;;;;4.67;2.40;;;16.90;99.90;;;;;;5077744;28;20500;-77
2022/07/24 01:05:13;;;;;;;4.60;2.43;;;16.90;99.90;;;;;;5077174;28;20444;-77
2022/07/24 01:07:40;;;;;;;3.77;2.80;;;16.90;99.90;;;;;;5076246;28;20996;-78
2022/07/24 01:10:09;;;;;;;3.60;2.80;;;16.90;99.90;;;;;;5077996;28;20471;-78
2022/07/24 01:12:37;;;;;;;4.73;4.33;;;16.90;99.90;;;;;;5082375;28;20507;-78
2022/07/24 01:15:05;;;;;;;5.30;3.90;;;16.80;99.90;;;;;;5081435;28;20451;-77
2022/07/24 01:17:33;;;;;;;3.13;2.77;;;16.80;99.90;;;;;;5083693;28;20440;-77
2022/07/24 01:20:00;;;;;;;2.97;2.30;;;16.80;99.90;;;;;;5078151;28;20944;-77
2022/07/24 01:22:29;;;;;;;6.10;2.50;;;16.70;99.90;;;;;;5077063;28;20484;-77
2022/07/24 01:24:56;;;;;;;2.70;2.30;;;16.80;99.90;;;;;;5079841;28;20770;-78
2022/07/24 01:27:23;;;;;;;3.30;3.00;;;16.70;99.90;;;;;;5079562;28;20449;-79
2022/07/24 01:29:50;;;;;;;3.20;2.90;;;16.70;99.90;;;;;;5078724;28;20819;-78
2022/07/24 01:32:17;;;;;;;3.53;2.20;;;16.70;99.90;;;;;;5077347;28;20464;-79
2022/07/24 01:34:44;;;;;;;3.10;2.03;;;16.70;99.90;;;;;;5078592;28;20441;-78
2022/07/24 01:37:11;;;;;;;3.50;2.97;;;16.70;99.90;;;;;;5076863;28;20445;-79
2022/07/24 01:39:39;;;;;;;4.40;3.90;;;16.70;99.90;;;;;;5078042;28;20817;-79
2022/07/24 01:42:06;;;;;;;3.33;2.80;;;16.70;99.90;;;;;;5077389;28;20949;-78
2022/07/24 01:44:33;;;;;;;4.33;2.80;;;16.70;99.90;;;;;;5077856;28;20447;-79
2022/07/24 01:46:59;;;;;;;2.63;2.30;;;16.60;99.90;;;;;;5077670;28;20448;-78
2022/07/24 01:49:26;;;;;;;2.47;1.83;;;16.60;99.90;;;;;;5077326;28;20811;-78
2022/07/24 01:51:53;;;;;;;3.60;2.00;;;16.50;99.90;;;;;;5077006;28;20816;-78
2022/07/24 01:54:20;;;;;;;2.23;2.03;;;16.70;99.90;;;;;;5079348;28;20456;-78
2022/07/24 01:56:48;;;;;;;2.30;2.10;;;16.70;99.90;;;;;;5088379;28;20451;-77
2022/07/24 01:59:14;;;;;;;5.10;2.20;;;16.70;99.90;;;;;;5085650;28;20444;-77
2022/07/24 02:01:41;;;;;;;2.43;2.23;;;16.70;99.90;;;;;;5080349;28;20820;-76
2022/07/24 02:04:08;;;;;;;2.93;2.63;;;16.70;99.90;;;;;;5075663;28;20447;-78
2022/07/24 02:06:34;;;;;;;4.07;3.47;;;16.70;99.90;;;;;;5076839;28;20448;-78
2022/07/24 02:09:02;;;;;;;3.10;2.80;;;16.50;99.90;;;;;;5077911;28;20795;-78
2022/07/24 02:11:28;;;;;;;4.07;3.20;;;16.40;99.90;;;;;;5076849;28;20449;-78
2022/07/24 02:13:59;;;;;;;3.20;2.90;;;16.40;99.90;;;;;;5076935;28;20483;-78
2022/07/24 02:16:26;;;;;;;4.93;2.60;;;16.50;99.90;;;;;;5077440;28;20433;-78
2022/07/24 02:18:53;;;;;;;4.20;3.27;;;16.30;99.90;;;;;;5077018;28;20451;-78
2022/07/24 02:21:19;;;;;;;3.50;2.40;;;16.30;99.90;;;;;;5077629;28;20444;-77
2022/07/24 02:23:46;;;;;;;3.03;2.60;;;16.40;99.90;;;;;;5076749;28;20461;-78
2022/07/24 02:26:13;;;;;;;3.43;3.10;;;16.40;99.90;;;;;;5075986;28;20441;-78
2022/07/24 02:28:39;;;;;;;3.37;2.80;;;16.40;99.90;;;;;;5077020;28;20453;-78
2022/07/24 02:31:08;;;;;;;3.07;2.87;;;16.30;99.90;;;;;;5076697;28;20449;-78
2022/07/24 02:33:34;;;;;;;3.40;3.07;;;16.30;99.90;;;;;;5076845;28;20994;-78
2022/07/24 02:36:01;;;;;;;3.50;3.20;;;16.30;99.90;;;;;;5077193;28;20502;-78
2022/07/24 02:38:28;;;;;;;2.63;2.43;;;16.10;99.90;;;;;;5076500;28;20475;-77
2022/07/24 02:40:55;;;;;;;3.37;3.07;;;16.00;99.90;;;;;;5076110;28;20455;-79
2022/07/24 02:43:21;;;;;;;5.00;3.17;;;15.90;99.90;;;;;;5074796;28;20457;-79
2022/07/24 02:45:48;;;;;;;2.50;2.30;;;15.90;99.90;;;;;;5074712;28;20453;-79
2022/07/24 02:48:16;;;;;;;3.03;2.70;;;16.00;99.90;;;;;;5075404;28;20978;-78
2022/07/24 02:50:43;;;;;;;2.97;2.73;;;16.00;99.90;;;;;;5074579;28;20445;-79
2022/07/24 02:53:09;;;;;;;2.90;2.70;;;16.10;99.90;;;;;;5074009;28;20489;-78
2022/07/24 02:55:36;;;;;;;2.50;2.30;;;16.20;99.90;;;;;;5074122;28;20449;-77
2022/07/24 02:58:04;;;;;;;3.10;2.50;;;16.20;99.90;;;;;;5074030;28;20448;-78
2022/07/24 03:00:31;;;;;;;3.30;2.57;;;16.20;99.90;;;;;;5074464;28;20453;-77
2022/07/24 03:02:58;;;;;;;5.77;3.70;;;16.20;99.90;;;;;;5074509;28;20461;-78
2022/07/24 03:05:26;;;;;;;2.70;2.50;;;16.10;99.90;;;;;;5074027;28;20456;-77
2022/07/24 03:07:53;;;;;;;2.03;1.93;;;16.00;99.90;;;;;;5073990;28;20448;-78
2022/07/24 03:10:20;;;;;;;2.03;1.73;;;16.10;99.90;;;;;;5073889;28;20450;-77
2022/07/24 03:12:46;;;;;;;2.80;2.57;;;16.10;99.90;;;;;;5073834;28;20485;-77
2022/07/24 03:15:14;;;;;;;2.33;2.13;;;16.00;99.90;;;;;;5074062;28;20543;-78
2022/07/24 03:17:50;;;;;;;2.73;2.17;;;15.80;99.90;;;;;;5073362;28;20449;-77
2022/07/24 03:20:17;;;;;;;2.23;2.00;;;15.70;99.90;;;;;;5075854;28;20453;-79
2022/07/24 03:22:45;;;;;;;2.90;2.37;;;15.80;99.90;;;;;;5073252;28;20464;-77
2022/07/24 03:25:11;;;;;;;2.30;2.10;;;15.60;99.90;;;;;;5073523;28;20556;-77
2022/07/24 03:27:38;;;;;;;2.63;1.80;;;15.50;99.90;;;;;;5073562;28;20451;-77
2022/07/24 03:30:07;;;;;;;3.70;2.30;;;15.60;99.90;;;;;;5073098;28;20940;-77
2022/07/24 03:32:34;;;;;;;2.83;2.07;;;15.70;99.90;;;;;;5073765;28;20491;-77
2022/07/24 03:35:01;;;;;;;2.38;2.17;;;15.80;99.90;;;;;;5074925;28;20904;-79
2022/07/24 03:37:28;;;;;;;2.50;2.37;;;15.80;99.90;;;;;;5076287;28;20577;-77
2022/07/24 03:39:56;;;;;;;3.00;2.20;;;15.90;99.90;;;;;;5074212;28;20452;-77
2022/07/24 03:42:23;;;;;;;2.77;2.10;;;15.80;99.90;;;;;;5073781;28;20492;-77
2022/07/24 03:44:50;;;;;;;2.50;2.30;;;15.80;99.90;;;;;;5073771;28;20448;-77
2022/07/24 03:47:17;;;;;;;2.13;1.93;;;15.70;99.90;;;;;;5073308;28;20441;-77
2022/07/24 03:49:44;;;;;;;4.40;4.00;;;15.60;99.90;;;;;;5073714;28;20460;-77
2022/07/24 03:52:10;;;;;;;2.13;1.80;;;15.60;99.90;;;;;;5073284;28;20835;-77
2022/07/24 03:54:37;;;;;;;2.07;1.97;;;15.70;99.90;;;;;;5073148;28;20452;-78
2022/07/24 03:57:06;;;;;;;4.03;2.37;;;15.60;99.90;;;;;;5073068;28;20441;-77
2022/07/24 03:59:32;;;;;;;3.27;2.13;;;15.70;99.90;;;;;;5072954;28;20985;-77
2022/07/24 04:01:59;;;;;;;5.27;2.77;;;15.80;99.90;;;;;;5073559;28;20475;-77
2022/07/24 04:04:26;;;;;;;2.00;1.80;;;15.80;99.90;;;;;;5073804;28;20791;-77
2022/07/24 04:06:53;;;;;;;2.43;2.23;;;15.80;99.90;;;;;;5073509;28;20502;-77
2022/07/24 04:09:19;;;;;;;2.47;2.27;;;15.90;99.90;;;;;;5073219;28;20452;-78
2022/07/24 04:11:47;;;;;;;2.03;1.90;;;16.00;99.90;;;;;;5074248;28;20823;-78
2022/07/24 04:14:15;;;;;;;4.60;3.57;;;15.80;99.90;;;;;;5070431;22;20539;-77
2022/07/24 04:16:41;;;;;;;4.30;3.90;;;15.90;99.90;;;;;;5052567;28;20468;-76
2022/07/24 04:19:08;;;;;;;4.77;2.70;;;15.90;99.90;;;;;;5052541;28;20445;-76
2022/07/24 04:21:35;;;;;;;2.80;2.60;;;15.90;99.90;;;;;;5052138;28;20431;-76
2022/07/24 04:24:02;;;;;;;3.97;2.40;;;15.90;99.90;;;;;;5052299;28;20305;-75
2022/07/24 04:26:28;;;;;;;3.20;2.23;;;15.80;99.90;;;;;;5052430;28;20866;-76
2022/07/24 04:28:55;;;;;;;2.50;2.30;;;15.90;99.90;;;;;;5053040;28;20449;-75
2022/07/24 04:31:23;;;;;;;2.27;2.17;;;15.90;99.90;;;;;;5052355;28;20822;-75
2022/07/24 04:33:50;;;;;;;2.03;1.87;;;16.00;99.90;;;;;;5052075;28;20493;-75
2022/07/24 04:36:16;;;;;;;15.57;9.30;;;15.90;99.90;;;;;;5052711;28;20445;-75
2022/07/24 04:38:43;;;;;;;14.57;9.20;;;16.00;99.90;;;;;;5051909;28;20456;-77
2022/07/24 04:41:10;;;;;;;2.93;2.27;;;16.00;99.90;;;;;;5052303;28;20450;-76
2022/07/24 04:43:37;;;;;;;2.60;2.30;;;16.00;99.90;;;;;;5052063;28;20513;-76
2022/07/24 04:46:03;;;;;;;3.20;2.27;;;16.10;99.90;;;;;;5051757;28;20966;-76
2022/07/24 04:48:32;;;;;;;1.67;1.57;;;16.00;99.90;;;;;;5052069;28;20458;-76
2022/07/24 04:50:59;;;;;;;2.60;2.40;;;16.00;99.90;;;;;;5052195;28;20454;-76
2022/07/24 04:53:26;;;;;;;2.67;2.43;;;16.10;99.90;;;;;;5051697;28;20983;-76
2022/07/24 04:55:53;;;;;;;2.20;2.10;;;16.10;99.90;;;;;;5051979;28;20456;-76
2022/07/24 04:58:19;;;;;;;2.23;2.03;;;16.00;99.90;;;;;;5052434;28;20458;-75
2022/07/24 05:00:46;;;;;;;2.27;1.97;;;16.10;99.90;;;;;;5051977;28;20457;-76
2022/07/24 05:03:13;;;;;;;3.40;2.47;;;16.10;99.90;;;;;;5052354;28;20458;-76
2022/07/24 05:05:41;;;;;;;1.80;1.70;;;16.10;99.90;;;;;;5052161;28;20438;-76
2022/07/24 05:08:07;;;;;;;2.00;1.73;;;16.20;99.90;;;;;;5054989;28;20446;-75
2022/07/24 05:10:34;;;;;;;2.63;2.07;;;16.30;99.90;;;;;;5060154;28;20448;-75
2022/07/24 05:13:01;;;;;;;1.83;1.50;;;16.40;99.90;;;;;;5064678;28;20485;-75
2022/07/24 05:15:27;;;;;;;1.93;1.70;;;16.50;99.90;;;;;;5055715;28;20476;-75
2022/07/24 05:17:54;;;;;;;2.43;2.00;;;16.50;99.90;;;;;;5055150;28;20971;-75
2022/07/24 05:20:21;;;;;;;2.07;1.93;;;16.60;99.90;;;;;;5054989;28;20452;-75
2022/07/24 05:22:49;;;;;;;2.00;1.90;;;16.50;99.90;;;;;;5055287;28;20826;-76
2022/07/24 05:25:16;;;;;;;2.13;1.93;;;16.60;99.90;;;;;;5055284;28;20453;-76
2022/07/24 05:27:42;;;;;;;6.73;2.50;;;16.70;99.90;;;;;;5055286;28;20457;-75
2022/07/24 05:30:10;;;;;;;2.20;1.73;;;16.60;99.90;;;;;;5055204;28;20459;-76
2022/07/24 05:32:37;;;;;;;2.70;2.50;;;16.80;99.90;;;;;;5055399;28;20470;-75
2022/07/24 05:35:05;;;;;;;1.80;1.70;;;16.80;99.90;;;;;;5055032;28;20457;-75
2022/07/24 05:37:31;;;;;;;2.30;1.80;;;16.90;99.90;;;;;;5054982;28;20442;-75
2022/07/24 05:39:59;;;;;;;2.13;1.90;;;17.00;99.90;;;;;;5054990;28;20445;-76
2022/07/24 05:42:26;;;;;;;1.80;1.70;;;17.00;99.90;;;;;;5054890;28;20469;-76
2022/07/24 05:44:53;;;;;;;2.30;1.67;;;17.10;99.90;;;;;;5054686;28;20445;-76
2022/07/24 05:47:19;;;;;;;1.47;1.37;;;17.10;99.90;;;;;;5054909;28;20472;-76
2022/07/24 05:49:46;;;;;;;3.70;2.30;;;17.20;99.90;;;;;;5054960;28;20468;-76
2022/07/24 05:52:13;;;;;;;1.83;1.73;;;17.20;99.90;;;;;;5054164;28;20457;-76
2022/07/24 05:54:40;;;;;;;1.83;1.73;;;17.20;99.90;;;;;;5054485;28;20477;-76
2022/07/24 05:57:08;;;;;;;2.60;2.10;;;17.20;99.90;;;;;;5054841;28;20445;-76
2022/07/24 05:59:35;;;;;;;2.40;1.43;;;17.30;99.90;;;;;;5055113;28;20793;-76
2022/07/24 06:02:03;;;;;;;2.00;1.80;;;17.40;99.90;;;;;;5054580;28;20457;-76
2022/07/24 06:04:30;;;;;;;1.60;1.50;;;17.50;99.90;;;;;;5054640;28;20458;-76
2022/07/24 06:06:57;;;;;;;1.97;1.83;;;17.60;99.90;;;;;;5054723;28;20453;-76
2022/07/24 06:09:24;;;;;;;4.10;1.83;;;17.50;99.90;;;;;;5054662;28;20819;-76
2022/07/24 06:11:50;;;;;;;2.33;1.70;;;17.70;99.90;;;;;;5054182;28;20453;-76
2022/07/24 06:14:18;;;;;;;3.70;1.80;;;17.70;99.90;;;;;;5053809;28;20486;-76
2022/07/24 06:16:45;;;;;;;1.50;1.40;;;17.80;99.90;;;;;;5054226;28;20524;-76
2022/07/24 06:19:12;;;;;;;1.63;1.33;;;17.80;99.90;;;;;;5053948;28;20449;-76
2022/07/24 06:21:38;;;;;;;1.83;1.63;;;17.70;99.90;;;;;;5054525;28;20462;-76
2022/07/24 06:24:06;;;;;;;2.97;1.47;;;17.70;99.90;;;;;;5054255;28;20988;-76
2022/07/24 06:26:32;;;;;;;4.00;1.53;;;17.70;99.90;;;;;;5054730;28;20461;-76
2022/07/24 06:28:59;;;;;;;1.90;1.63;;;17.90;99.90;;;;;;5055078;28;20864;-76
2022/07/24 06:31:27;;;;;;;2.63;2.03;;;17.90;99.90;;;;;;5054236;28;20503;-76
2022/07/24 06:33:54;;;;;;;1.83;1.50;;;18.00;99.90;;;;;;5054333;28;20492;-77
2022/07/24 06:36:21;;;;;;;3.03;1.83;;;18.10;99.90;;;;;;5054219;28;20453;-76
2022/07/24 06:38:47;;;;;;;1.60;1.50;;;18.10;99.90;;;;;;5054075;28;20441;-76
2022/07/24 06:41:14;;;;;;;2.87;1.70;;;18.20;99.90;;;;;;5053921;28;20450;-77
2022/07/24 06:43:41;;;;;;;3.23;1.50;;;18.20;99.90;;;;;;5053827;28;20466;-76
2022/07/24 06:46:08;;;;;;;2.00;1.23;;;18.20;99.90;;;;;;5055357;28;20858;-76
2022/07/24 06:48:36;;;;;;;2.40;1.80;;;18.20;99.90;;;;;;5054391;28;20453;-77
2022/07/24 06:51:02;;;;;;;3.23;2.40;;;18.30;99.90;;;;;;5055646;28;20507;-76
2022/07/24 06:53:29;;;;;;;2.37;1.63;;;18.40;99.90;;;;;;5056609;28;20477;-75
2022/07/24 06:55:56;;;;;;;2.83;2.17;;;18.40;99.90;;;;;;5055187;28;20468;-77
2022/07/24 06:58:23;;;;;;;2.07;1.97;;;18.40;99.90;;;;;;5053925;28;20449;-77
2022/07/24 07:00:50;;;;;;;3.43;1.40;;;18.40;99.90;;;;;;5053743;28;20453;-76
2022/07/24 07:03:18;;;;;;;3.73;2.00;;;18.50;99.90;;;;;;5053263;28;20830;-76
2022/07/24 07:05:46;;;;;;;2.10;1.90;;;18.50;99.90;;;;;;5053995;28;20445;-75
2022/07/24 07:08:13;;;;;;;1.63;1.43;;;18.60;99.90;;;;;;5053144;28;20453;-76
2022/07/24 07:10:39;;;;;;;2.53;1.40;;;18.60;99.90;;;;;;5053372;28;20817;-76
2022/07/24 07:13:06;;;;;;;1.53;1.43;;;18.70;99.90;;;;;;5052575;28;20484;-76
2022/07/24 07:15:33;;;;;;;3.30;1.67;;;18.60;99.90;;;;;;5053159;28;20863;-76
2022/07/24 07:17:59;;;;;;;1.60;1.50;;;18.70;99.90;;;;;;5053757;28;20457;-77
2022/07/24 07:20:26;;;;;;;1.70;1.60;;;18.80;99.90;;;;;;5053049;28;20445;-77
2022/07/24 07:22:54;;;;;;;1.50;1.40;;;18.20;99.90;;;;;;5052741;28;20476;-76
2022/07/24 07:25:21;;;;;;;2.97;1.50;;;18.60;99.90;;;;;;5053125;28;20511;-77
2022/07/24 07:27:48;;;;;;;1.73;1.60;;;18.70;99.90;;;;;;5052765;28;20450;-76
2022/07/24 07:30:15;;;;;;;3.03;1.50;;;18.80;99.90;;;;;;5052562;28;20831;-76
2022/07/24 07:32:42;;;;;;;1.53;1.43;;;18.90;99.90;;;;;;5052783;28;20476;-76
2022/07/24 07:35:09;;;;;;;1.80;1.40;;;19.00;99.90;;;;;;5052898;28;20825;-76
2022/07/24 07:37:36;;;;;;;2.13;1.70;;;18.90;99.90;;;;;;5052894;28;20469;-76
2022/07/24 07:40:05;;;;;;;1.87;1.50;;;19.00;99.90;;;;;;5053882;28;20453;-76
2022/07/24 07:42:32;;;;;;;1.63;1.33;;;19.10;99.90;;;;;;5052822;28;20841;-76
2022/07/24 07:44:59;;;;;;;2.00;1.57;;;19.20;99.90;;;;;;5052826;28;20500;-76
2022/07/24 07:47:25;;;;;;;1.70;1.57;;;19.10;99.90;;;;;;5052444;28;20944;-76
2022/07/24 07:49:52;;;;;;;2.03;1.57;;;19.30;99.90;;;;;;5052678;28;20453;-76
2022/07/24 07:52:19;;;;;;;1.70;1.60;;;20.10;99.90;;;;;;5052647;28;20453;-76
2022/07/24 07:54:46;;;;;;;1.70;1.60;;;19.50;99.90;;;;;;5052571;28;20539;-76
2022/07/24 07:57:14;;;;;;;1.87;1.10;;;19.60;99.90;;;;;;5052468;28;20980;-76
2022/07/24 07:59:40;;;;;;;1.70;1.60;;;19.70;99.90;;;;;;5052743;28;20472;-76
2022/07/24 08:02:07;;;;;;;2.10;1.37;;;19.70;99.90;;;;;;5052543;28;20452;-76
2022/07/24 08:04:35;;;;;;;2.63;1.77;;;19.70;99.90;;;;;;5052775;28;20442;-77
2022/07/24 08:07:01;;;;;;;1.57;1.47;;;19.80;99.90;;;;;;5052799;28;20454;-76
2022/07/24 08:09:28;;;;;;;2.00;1.80;;;19.80;99.90;;;;;;5053505;28;20442;-76
2022/07/24 08:11:55;;;;;;;2.67;2.10;;;19.80;99.90;;;;;;5054052;28;20454;-76
2022/07/24 08:14:23;;;;;;;2.60;1.73;;;19.90;99.90;;;;;;5053244;28;20492;-76
2022/07/24 08:16:49;;;;;;;1.87;1.47;;;20.00;99.90;;;;;;5052962;28;20503;-76
2022/07/24 08:19:16;;;;;;;1.53;1.43;;;20.00;99.90;;;;;;5053036;28;20442;-76
2022/07/24 08:21:43;;;;;;;2.17;1.50;;;20.10;99.90;;;;;;5052715;28;20446;-76
2022/07/24 08:24:10;;;;;;;5.73;1.40;;;20.10;99.90;;;;;;5052851;28;20466;-76
2022/07/24 08:26:36;;;;;;;1.90;1.30;;;20.20;99.90;;;;;;5052381;28;20449;-76
2022/07/24 08:29:03;;;;;;;1.77;1.60;;;20.30;99.90;;;;;;5053480;28;20446;-76
2022/07/24 08:31:31;;;;;;;3.33;1.40;;;20.40;99.90;;;;;;5052790;28;20809;-77
2022/07/24 08:33:58;;;;;;;1.57;1.30;;;20.40;99.90;;;;;;5052191;28;20485;-76
2022/07/24 08:36:24;;;;;;;1.40;1.30;;;20.30;99.90;;;;;;5052245;28;20456;-76
2022/07/24 08:38:51;;;;;;;1.40;1.30;;;20.30;99.90;;;;;;5052383;28;20503;-76
2022/07/24 08:41:18;;;;;;;1.47;1.37;;;20.40;99.90;;;;;;5052364;28;20450;-76
2022/07/24 08:43:45;;;;;;;1.87;1.27;;;20.50;99.90;;;;;;5055789;28;20619;-76
2022/07/24 08:46:15;;;;;;;1.23;1.13;;;20.60;99.90;;;;;;5056075;28;20951;-76
2022/07/24 08:48:46;;;;;;;1.63;1.53;;;20.60;99.90;;;;;;5056623;28;20441;-76
2022/07/24 08:51:14;;;;;;;1.43;1.33;;;20.70;99.90;;;;;;5057262;28;20429;-76
2022/07/24 08:53:43;;;;;;;1.30;1.20;;;20.80;99.90;;;;;;5057328;28;20853;-76
2022/07/24 08:56:11;;;;;;;1.70;1.60;;;20.80;99.90;;;;;;5056443;28;20449;-76
2022/07/24 08:58:38;;;;;;;1.53;1.43;;;20.90;99.90;;;;;;5057178;28;20445;-76
2022/07/24 09:01:06;;;;;;;1.63;1.50;;;20.80;99.90;;;;;;5056268;28;20485;-76
2022/07/24 09:03:41;;;;;;;2.70;2.20;;;20.90;99.90;;;;;;5055588;28;20992;-76
2022/07/24 09:06:10;;;;;;;3.37;3.10;;;21.00;99.90;;;;;;5055549;28;20582;-76
2022/07/24 09:08:38;;;;;;;2.87;1.57;;;21.00;99.90;;;;;;5055445;28;21028;-76
2022/07/24 09:11:06;;;;;;;2.30;1.60;;;21.10;99.90;;;;;;5055862;28;20456;-77
2022/07/24 09:16:22;;;;;;;1.77;1.67;;;21.20;99.90;;;;;;5013276;28;20856;-75
2022/07/24 09:18:50;;;;;;;2.43;2.23;;;21.30;99.90;;;;;;5057016;28;20452;-75
2022/07/24 09:21:19;;;;;;;2.17;1.93;;;21.40;99.90;;;;;;5055615;28;20442;-75
2022/07/24 09:23:48;;;;;;;2.37;2.17;;;21.40;99.90;;;;;;5055508;28;20466;-76
2022/07/24 09:26:15;;;;;;;2.70;1.80;;;21.50;99.90;;;;;;5054961;28;20536;-76
2022/07/24 09:28:50;;;;;;;2.27;1.60;;;21.60;99.90;;;;;;5055478;28;20446;-76
2022/07/24 09:31:17;;;;;;;1.77;1.67;;;21.70;99.90;;;;;;5055101;28;20944;-75
2022/07/24 09:33:44;;;;;;;1.70;1.60;;;21.80;99.90;;;;;;5055203;28;20833;-76
2022/07/24 09:36:15;;;;;;;4.47;2.10;;;21.90;99.90;;;;;;5054909;28;20457;-76
2022/07/24 09:38:49;;;;;;;1.97;1.87;;;21.90;99.90;;;;;;5056127;28;20441;-77
2022/07/24 09:41:21;;;;;;;1.80;1.70;;;22.00;99.90;;;;;;5058397;28;20426;-76
2022/07/24 09:43:57;;;;;;;1.90;1.80;;;22.10;99.90;;;;;;5054910;28;20469;-76
2022/07/24 09:46:26;;;;;;;4.10;3.50;;;22.10;99.90;;;;;;5055315;28;20425;-76
2022/07/24 09:48:56;;;;;;;2.67;1.70;;;22.00;99.90;;;;;;5055306;28;20441;-76
2022/07/24 09:51:24;;;;;;;2.23;1.53;;;22.10;99.90;;;;;;5054932;28;20511;-76
2022/07/24 09:53:56;;;;;;;2.37;2.17;;;21.80;99.90;;;;;;5054186;28;20972;-76
2022/07/24 09:56:24;;;;;;;1.90;1.80;;;22.10;99.90;;;;;;5054971;28;20430;-76
2022/07/24 09:58:52;;;;;;;1.73;1.63;;;22.30;99.90;;;;;;5054485;28;20457;-76
2022/07/24 10:01:21;;;;;;;2.30;1.70;;;22.40;99.90;;;;;;5054842;28;20446;-76
2022/07/24 10:03:49;;;;;;;3.47;1.60;;;22.50;99.90;;;;;;5054851;28;20939;-76
2022/07/24 10:06:19;;;;;;;1.63;1.53;;;22.50;99.90;;;;;;5054714;28;20450;-76
2022/07/24 10:08:47;;;;;;;1.97;1.87;;;22.60;99.90;;;;;;5055276;28;20453;-77
2022/07/24 10:11:16;;;;;;;1.67;1.57;;;22.50;99.90;;;;;;5054713;28;20454;-77
2022/07/24 10:13:43;;;;;;;3.93;1.90;;;22.70;99.90;;;;;;5088409;22;20496;-78
2022/07/24 10:16:28;;;;;;;1.83;1.40;;;22.60;99.90;;;;;;5077126;28;20481;-78
2022/07/24 10:18:57;;;;;;;1.40;1.30;;;22.70;99.90;;;;;;5078214;28;20800;-78
2022/07/24 10:21:26;;;;;;;2.23;2.03;;;22.70;99.90;;;;;;5078410;28;20515;-78
2022/07/24 10:24:31;;;;;;;2.83;2.20;;;22.80;99.90;;;;;;5078673;28;20475;-78
2022/07/24 10:27:05;;;;;;;2.40;1.73;;;22.90;99.90;;;;;;5075716;28;20421;-77
2022/07/24 10:29:34;;;;;;;2.00;1.90;;;23.00;99.90;;;;;;5075362;28;20486;-77
2022/07/24 10:32:01;;;;;;;1.93;1.83;;;23.00;99.90;;;;;;5075216;28;20796;-76
2022/07/24 10:34:34;;;;;;;3.00;1.87;;;23.10;99.90;;;;;;5074913;28;20477;-77
2022/07/24 10:37:10;;;;;;;1.53;1.43;;;23.10;99.90;;;;;;5074681;28;20504;-77
2022/07/24 10:39:42;;;;;;;3.53;2.13;;;23.10;99.90;;;;;;5075034;28;20433;-77
2022/07/24 10:42:10;;;;;;;2.07;1.70;;;23.10;99.90;;;;;;5076002;28;20440;-78
2022/07/24 10:44:37;;;;;;;2.00;1.70;;;23.20;99.90;;;;;;5077393;28;20464;-78
2022/07/24 10:47:07;;;;;;;1.30;1.20;;;23.20;99.90;;;;;;5077386;28;20444;-78
2022/07/24 10:49:42;;;;;;;5.47;1.57;;;23.20;99.90;;;;;;5078489;28;20452;-78
2022/07/24 10:52:11;;;;;;;2.93;2.30;;;23.20;99.90;;;;;;5077786;28;20908;-78
2022/07/24 10:54:38;;;;;;;2.03;1.93;;;23.20;99.90;;;;;;5077473;28;20488;-78
2022/07/24 10:57:05;;;;;;;1.93;1.80;;;23.30;99.90;;;;;;5076654;28;20445;-77
2022/07/24 10:59:35;;;;;;;2.40;2.20;;;23.50;99.90;;;;;;5076925;28;20544;-77
2022/07/24 11:02:25;;;;;;;2.03;1.83;;;23.60;99.90;;;;;;5078803;28;20528;-78
2022/07/24 11:05:31;;;;;;;2.30;2.10;;;23.70;99.90;;;;;;5076318;28;20461;-78
2022/07/24 11:08:29;;;;;;;2.43;2.23;;;23.50;99.90;;;;;;5056822;28;20471;-76
2022/07/24 11:10:59;;;;;;;2.20;2.00;;;23.60;99.90;;;;;;5078353;28;20950;-78
2022/07/24 11:13:46;;;;;;;2.60;2.40;;;23.70;99.90;;;;;;5077037;28;20472;-78
2022/07/24 11:16:21;;;;;;;2.30;2.10;;;23.80;99.90;;;;;;5078973;28;20485;-78
2022/07/24 11:19:26;;;;;;;1.90;1.80;;;23.80;99.90;;;;;;5078747;28;20431;-77
2022/07/24 11:22:04;;;;;;;4.13;2.67;;;23.90;99.90;;;;;;5093052;28;20451;-76
2022/07/24 11:24:31;;;;;;;2.40;2.00;;;24.00;99.90;;;;;;5082257;28;20472;-78
2022/07/24 11:26:59;;;;;;;3.60;2.30;;;24.10;99.90;;;;;;5079743;28;20445;-78
2022/07/24 11:29:29;;;;;;;2.53;2.33;;;24.20;99.90;;;;;;5080953;28;20947;-78
2022/07/24 11:32:00;;;;;;;2.20;2.10;;;24.30;99.90;;;;;;5080088;28;20449;-77
2022/07/24 11:34:29;;;;;;;2.90;2.60;;;24.30;99.90;;;;;;5074986;28;20475;-77
2022/07/24 11:36:57;;;;;;;3.50;3.20;;;24.40;99.90;;;;;;5074903;28;20525;-79
2022/07/24 11:39:28;;;;;;;3.43;2.70;;;24.30;99.90;;;;;;5074286;28;20971;-78
2022/07/24 11:41:56;;;;;;;1.80;1.70;;;24.40;99.90;;;;;;5074245;28;20434;-77
2022/07/24 11:44:25;;;;;;;1.93;1.73;;;24.50;99.90;;;;;;5074111;28;20461;-77
2022/07/24 11:46:52;;;;;;;2.50;2.30;;;24.50;99.90;;;;;;5074519;28;20445;-77
2022/07/24 11:49:20;;;;;;;2.23;2.10;;;24.50;99.90;;;;;;5074184;28;20462;-76
2022/07/24 11:51:50;;;;;;;2.33;1.90;;;24.60;99.90;;;;;;5074339;28;20452;-77
2022/07/24 11:54:22;;;;;;;3.67;1.80;;;24.60;99.90;;;;;;5075428;28;20516;-77
2022/07/24 11:56:50;;;;;;;1.93;1.80;;;24.50;99.90;;;;;;5076112;28;20821;-78
2022/07/24 11:59:24;;;;;;;2.47;2.27;;;24.60;99.90;;;;;;5076153;28;20487;-77
2022/07/24 12:01:51;;;;;;;2.00;1.90;;;24.60;99.90;;;;;;5075959;28;20453;-78
2022/07/24 12:04:22;;;;;;;2.20;2.00;;;24.50;99.90;;;;;;5078644;28;20468;-78
2022/07/24 12:06:52;;;;;;;2.20;1.87;;;24.40;99.90;;;;;;5077634;28;20425;-78
2022/07/24 12:09:19;;;;;;;1.90;1.80;;;24.20;99.90;;;;;;5076496;28;20448;-78
2022/07/24 12:11:47;;;;;;;1.83;1.73;;;24.30;99.90;;;;;;5077461;28;20877;-78
2022/07/24 12:14:16;;;;;;;2.03;1.93;;;24.50;99.90;;;;;;5075929;28;21014;-77
2022/07/24 12:16:43;;;;;;;2.80;2.00;;;24.70;99.90;;;;;;5080585;28;20874;-78
2022/07/24 12:19:14;;;;;;;2.70;2.50;;;24.80;99.90;;;;;;5091696;28;20463;-77
2022/07/24 12:21:43;;;;;;;2.10;2.00;;;24.90;99.90;;;;;;5079327;28;20460;-77
2022/07/24 12:24:11;;;;;;;4.07;2.70;;;25.00;99.90;;;;;;5085122;28;20472;-78
2022/07/24 12:26:52;;;;;;;2.70;2.50;;;25.10;99.90;;;;;;5077675;28;20452;-78
2022/07/24 12:29:19;;;;;;;3.53;3.20;;;25.10;99.90;;;;;;5081627;28;20425;-78
2022/07/24 12:31:47;;;;;;;2.57;2.30;;;25.20;99.90;;;;;;5081007;28;20453;-78
2022/07/24 12:34:14;;;;;;;2.50;2.27;;;25.20;99.90;;;;;;5079925;28;20465;-78
2022/07/24 12:36:43;;;;;;;1.93;1.83;;;25.30;99.90;;;;;;5079765;28;20547;-78
2022/07/24 12:39:12;;;;;;;2.03;1.93;;;25.50;99.90;;;;;;5080004;28;20449;-78
2022/07/24 12:41:44;;;;;;;3.23;2.93;;;25.50;99.90;;;;;;5079746;28;20445;-77
2022/07/24 12:44:11;;;;;;;2.40;2.20;;;25.60;99.90;;;;;;5080478;28;20465;-78
2022/07/24 12:46:39;;;;;;;1.80;1.70;;;25.60;99.90;;;;;;5081104;28;20455;-78
2022/07/24 12:49:07;;;;;;;1.87;1.77;;;25.60;99.90;;;;;;5079677;28;20444;-78
2022/07/24 12:51:53;;;;;;;1.70;1.60;;;25.70;99.90;;;;;;5077985;28;20472;-78
2022/07/24 12:54:22;;;;;;;2.40;2.00;;;25.60;99.90;;;;;;5079288;28;20464;-78
2022/07/24 12:56:50;;;;;;;2.30;2.10;;;25.70;99.90;;;;;;5077664;28;20480;-77